Armitage, United Kingdom
Current Conditions -  °F | °C
As of 6:20 AM on Thursday 27 Nov 2014 (Local Time) from EGBB Reporting Station
Drizzle Drizzle  
Wind Chill: 45°   Ceiling: 200
Heat Index: 45°   Visibility: 1.3mi
Dew Point: 45°   Wind: 2mph
Humidity: 100%   Direction: 150°SSE
Pressure: 29.62"   Gusts: NA
Location:  52.74°N, 1.88°W
Report Text: EGBB 270620Z 15002KT 2200 DZ BR BKN002 OVC004 07/07 Q1003
Loading
Personal Weather Stations






























Interactive Weather Map New forecast layout! Learn more

10-Day Weather Forecast

Advertisements
Track Severe Weather on mobile